createdAt,value
2018-02-24T00:01:41.002Z,22.37
2018-02-24T00:04:08.663Z,21.85
2018-02-24T00:06:36.172Z,21.17
2018-02-24T00:09:04.210Z,21.48
2018-02-24T00:11:31.726Z,18.87
2018-02-24T00:13:59.285Z,24.15
2018-02-24T00:16:26.798Z,20.40
2018-02-24T00:18:54.321Z,21.62
2018-02-24T00:21:21.862Z,22.62
2018-02-24T00:23:49.385Z,21.75
2018-02-24T00:26:16.938Z,20.65
2018-02-24T00:28:44.449Z,21.83
2018-02-24T00:31:11.969Z,22.80
2018-02-24T00:33:39.518Z,20.62
2018-02-24T00:36:07.029Z,20.33
2018-02-24T00:38:34.582Z,22.08
2018-02-24T00:41:02.122Z,22.35
2018-02-24T00:43:29.647Z,21.42
2018-02-24T00:45:57.199Z,20.52
2018-02-24T00:48:24.725Z,20.62
2018-02-24T00:50:52.460Z,20.95
2018-02-24T00:53:19.990Z,23.02
2018-02-24T00:55:47.505Z,22.33
2018-02-24T00:58:15.189Z,23.08
2018-02-24T01:00:42.706Z,20.88
2018-02-24T01:03:10.266Z,22.55
2018-02-24T01:05:37.828Z,22.42
2018-02-24T01:08:05.314Z,21.40
2018-02-24T01:10:32.883Z,20.40
2018-02-24T01:13:00.402Z,22.30
2018-02-24T01:15:28.077Z,21.20
2018-02-24T01:17:55.594Z,22.40
2018-02-24T01:20:23.114Z,19.33
2018-02-24T01:22:50.658Z,23.25
2018-02-24T01:25:18.172Z,18.85
2018-02-24T01:27:45.722Z,19.75
2018-02-24T01:30:13.242Z,22.40
2018-02-24T01:32:40.758Z,22.58
2018-02-24T01:35:08.306Z,19.95
2018-02-24T01:37:35.826Z,22.40
2018-02-24T01:40:03.378Z,21.27
2018-02-24T01:42:30.900Z,20.60
2018-02-24T01:44:58.488Z,20.77
2018-02-24T01:47:26.038Z,22.52
2018-02-24T01:49:53.573Z,14.95
2018-02-24T01:52:21.278Z,18.98
2018-02-24T01:54:48.790Z,18.45
2018-02-24T01:57:16.309Z,20.50
2018-02-24T01:59:43.855Z,15.60
2018-02-24T02:02:11.381Z,19.08
2018-02-24T02:04:39.058Z,20.33
2018-02-24T02:07:06.631Z,20.08
2018-02-24T02:09:34.150Z,19.73
2018-02-24T02:12:01.693Z,17.12
2018-02-24T02:14:29.219Z,19.08
2018-02-24T02:16:56.771Z,19.15
2018-02-24T02:19:24.291Z,18.58
2018-02-24T02:21:51.821Z,16.75
2018-02-24T02:24:19.393Z,18.55
2018-02-24T02:26:46.921Z,13.52
2018-02-24T02:29:14.882Z,20.58
2018-02-24T02:31:42.404Z,19.23
2018-02-24T02:34:09.929Z,16.83
2018-02-24T02:36:37.475Z,13.70
2018-02-24T02:39:05.006Z,20.95
2018-02-24T02:41:32.650Z,15.38
2018-02-24T02:44:00.174Z,15.55
2018-02-24T02:46:27.695Z,18.50
2018-02-24T02:48:55.247Z,18.95
2018-02-24T02:51:22.767Z,21.98
2018-02-24T02:53:50.411Z,20.33
2018-02-24T02:56:17.923Z,19.62
2018-02-24T02:58:45.439Z,22.35
2018-02-24T03:01:12.985Z,19.98
2018-02-24T03:03:40.502Z,20.90
2018-02-24T03:06:08.075Z,18.27
2018-02-24T03:08:35.593Z,17.20
2018-02-24T03:11:03.113Z,22.30
2018-02-24T03:13:30.658Z,19.08
2018-02-24T03:15:58.177Z,11.65
2018-02-24T03:18:25.734Z,20.67
2018-02-24T03:20:53.251Z,20.05
2018-02-24T03:23:20.766Z,11.85
2018-02-24T03:25:48.307Z,20.12
2018-02-24T03:28:15.825Z,20.08
2018-02-24T03:30:43.628Z,20.25
2018-02-24T03:33:11.158Z,20.23
2018-02-24T03:35:38.686Z,14.70
2018-02-24T03:38:06.240Z,19.62
2018-02-24T03:40:33.761Z,18.45
2018-02-24T03:43:01.330Z,22.85
2018-02-24T03:45:28.855Z,26.35
2018-02-24T03:47:56.373Z,18.27
2018-02-24T03:50:23.929Z,22.33
2018-02-24T03:52:51.450Z,17.10
2018-02-24T03:55:19.022Z,22.33
2018-02-24T03:57:46.649Z,21.05
2018-02-24T04:00:14.169Z,20.00
2018-02-24T04:02:41.721Z,23.50
2018-02-24T04:05:09.280Z,20.15
2018-02-24T04:07:36.837Z,23.60
2018-02-24T04:10:04.364Z,24.87
2018-02-24T04:12:31.883Z,23.45
2018-02-24T04:14:59.447Z,22.95
2018-02-24T04:17:26.967Z,22.17
2018-02-24T04:19:54.914Z,23.55
2018-02-24T04:22:22.453Z,25.12
2018-02-24T04:24:49.978Z,17.33
2018-02-24T04:27:17.521Z,25.40
2018-02-24T04:29:45.063Z,21.55
2018-02-24T04:32:12.610Z,24.05
2018-02-24T04:34:40.122Z,20.35
2018-02-24T04:37:07.648Z,22.92
2018-02-24T04:39:35.192Z,22.25
2018-02-24T04:42:02.718Z,24.30
2018-02-24T04:44:30.340Z,22.98
2018-02-24T04:46:57.842Z,20.08
2018-02-24T04:49:25.397Z,23.77
2018-02-24T04:51:52.929Z,25.35
2018-02-24T04:54:20.487Z,26.12
2018-02-24T04:56:48.058Z,25.50
2018-02-24T04:59:15.578Z,28.27
2018-02-24T05:01:43.103Z,22.95
2018-02-24T05:04:10.653Z,25.27
2018-02-24T05:06:38.176Z,22.58
2018-02-24T05:09:05.897Z,24.83
2018-02-24T05:11:33.417Z,27.60
2018-02-24T05:14:00.937Z,28.48
2018-02-24T05:16:28.673Z,24.80
2018-02-24T05:18:56.210Z,23.90
2018-02-24T05:21:24.104Z,26.10
2018-02-24T05:23:51.621Z,23.65
2018-02-24T05:26:19.139Z,19.95
2018-02-24T05:28:46.691Z,18.90
2018-02-24T05:31:14.205Z,21.10
2018-02-24T05:33:41.779Z,21.30
2018-02-24T05:36:09.390Z,26.77
2018-02-24T05:38:36.912Z,23.40
2018-02-24T05:41:04.469Z,23.70
2018-02-24T05:43:31.990Z,18.30
2018-02-24T05:45:59.697Z,25.90
2018-02-24T05:48:27.221Z,27.95
2018-02-24T05:50:54.743Z,24.98
2018-02-24T05:53:22.290Z,21.12
2018-02-24T05:55:49.814Z,24.83
2018-02-24T05:58:17.597Z,25.65
2018-02-24T06:00:45.126Z,22.70
2018-02-24T06:03:12.675Z,31.17
2018-02-24T06:05:40.229Z,27.65
2018-02-24T06:08:07.756Z,21.92
2018-02-24T06:10:35.413Z,20.50
2018-02-24T06:13:02.959Z,23.38
2018-02-24T06:15:30.650Z,23.50
2018-02-24T06:17:58.194Z,21.12
2018-02-24T06:20:25.801Z,27.33
2018-02-24T06:22:53.366Z,26.70
2018-02-24T06:25:20.904Z,26.95
2018-02-24T06:27:48.430Z,20.25
2018-02-24T06:30:15.993Z,21.52
2018-02-24T06:32:43.508Z,23.40
2018-02-24T06:35:11.054Z,25.85
2018-02-24T06:37:38.577Z,23.73
2018-02-24T06:40:06.111Z,21.52
2018-02-24T06:42:33.670Z,25.88
2018-02-24T06:45:01.205Z,19.80
2018-02-24T06:47:28.885Z,24.52
2018-02-24T06:49:56.418Z,23.33
2018-02-24T06:52:23.961Z,27.00
2018-02-24T06:54:51.510Z,22.95
2018-02-24T06:57:19.050Z,26.98
2018-02-24T06:59:47.928Z,29.50
2018-02-24T07:02:15.440Z,22.92
2018-02-24T07:04:42.967Z,27.70
2018-02-24T07:07:10.517Z,25.80
2018-02-24T07:09:38.985Z,18.08
2018-02-24T07:12:07.977Z,18.12
2018-02-24T07:14:36.458Z,24.15
2018-02-24T07:17:04.008Z,28.48
2018-02-24T07:19:31.575Z,25.40
2018-02-24T07:21:59.106Z,26.83
2018-02-24T07:24:27.025Z,26.58
2018-02-24T07:26:54.566Z,27.05
2018-02-24T07:29:23.044Z,30.77
2018-02-24T07:31:50.591Z,24.80
2018-02-24T07:34:18.117Z,19.58
2018-02-24T07:36:45.662Z,27.87
2018-02-24T07:39:13.191Z,28.02
2018-02-24T07:41:41.658Z,29.12
2018-02-24T07:44:09.202Z,28.02
2018-02-24T07:46:37.697Z,27.85
2018-02-24T07:49:05.246Z,23.08
2018-02-24T07:51:32.765Z,26.55
2018-02-24T07:54:01.292Z,23.80
2018-02-24T07:56:28.839Z,24.58
2018-02-24T07:58:56.361Z,22.80
2018-02-24T08:01:24.178Z,28.55
2018-02-24T08:03:51.713Z,23.62
2018-02-24T08:06:19.234Z,27.23
2018-02-24T08:08:46.798Z,20.17
2018-02-24T08:11:14.326Z,26.77
2018-02-24T08:13:42.060Z,26.00
2018-02-24T08:16:09.577Z,26.10
2018-02-24T08:18:37.239Z,26.05
2018-02-24T08:21:04.857Z,22.73
2018-02-24T08:23:32.482Z,23.58
2018-02-24T08:26:00.056Z,23.48
2018-02-24T08:28:27.640Z,22.42
2018-02-24T08:30:55.365Z,16.65
2018-02-24T08:33:22.949Z,24.45
2018-02-24T08:35:50.470Z,26.60
2018-02-24T08:38:18.272Z,24.67
2018-02-24T08:40:45.797Z,25.20
2018-02-24T08:43:14.023Z,23.95
2018-02-24T08:45:41.578Z,27.15
2018-02-24T08:48:09.108Z,22.87
2018-02-24T08:50:36.702Z,20.48
2018-02-24T08:53:04.227Z,25.73
2018-02-24T08:55:32.119Z,17.75
2018-02-24T08:58:00.216Z,23.23
2018-02-24T09:00:27.636Z,20.75
2018-02-24T09:02:55.326Z,20.65
2018-02-24T09:05:22.848Z,20.90
2018-02-24T09:07:50.508Z,19.83
2018-02-24T09:10:18.089Z,15.07
2018-02-24T09:12:45.632Z,21.95
2018-02-24T09:15:13.924Z,22.95
2018-02-24T09:17:42.405Z,21.70
2018-02-24T09:20:09.922Z,19.95
2018-02-24T09:22:37.478Z,17.37
2018-02-24T09:25:05.025Z,20.23
2018-02-24T09:27:32.933Z,15.05
2018-02-24T09:30:00.450Z,18.70
2018-02-24T09:32:27.983Z,16.83
2018-02-24T09:34:55.627Z,18.98
2018-02-24T09:37:23.186Z,21.60
2018-02-24T09:39:51.052Z,20.15
2018-02-24T09:42:18.613Z,20.73
2018-02-24T09:44:46.142Z,21.37
2018-02-24T09:47:14.122Z,20.10
2018-02-24T09:49:41.798Z,20.10
2018-02-24T09:52:09.691Z,20.60
2018-02-24T09:54:37.394Z,23.23
2018-02-24T09:57:05.088Z,21.37
2018-02-24T09:59:32.857Z,20.15
2018-02-24T10:02:00.621Z,21.92
2018-02-24T10:04:28.439Z,19.62
2018-02-24T10:06:56.331Z,20.87
2018-02-24T10:09:24.120Z,19.98
2018-02-24T10:11:51.983Z,19.60
2018-02-24T10:14:19.736Z,20.40
2018-02-24T10:16:47.519Z,16.73
2018-02-24T10:19:15.379Z,21.03
2018-02-24T10:21:42.967Z,17.63
2018-02-24T10:24:10.778Z,21.77
2018-02-24T10:26:38.327Z,17.37
2018-02-24T10:29:06.127Z,17.77
2018-02-24T10:31:33.994Z,19.80
2018-02-24T10:34:01.657Z,17.50
2018-02-24T10:36:29.250Z,17.77
2018-02-24T10:38:56.877Z,17.87
2018-02-24T10:41:24.821Z,19.20
2018-02-24T10:43:52.508Z,18.63
2018-02-24T10:46:21.193Z,16.53
2018-02-24T10:48:48.832Z,18.97
2018-02-24T10:51:16.360Z,19.63
2018-02-24T10:53:43.942Z,19.30
2018-02-24T10:56:11.740Z,18.07
2018-02-24T10:58:39.337Z,18.73
2018-02-24T11:01:07.133Z,16.40
2018-02-24T11:03:34.825Z,15.80
2018-02-24T11:06:02.581Z,16.60
2018-02-24T11:08:30.161Z,17.03
2018-02-24T11:10:57.912Z,14.30
2018-02-24T11:13:25.674Z,17.00
2018-02-24T11:15:53.297Z,15.20
2018-02-24T11:18:21.100Z,15.60
2018-02-24T11:20:48.979Z,17.90
2018-02-24T11:23:16.732Z,17.30
2018-02-24T11:25:44.495Z,18.93
2018-02-24T11:28:12.062Z,15.57
2018-02-24T11:30:39.818Z,13.40
2018-02-24T11:33:07.481Z,14.43
2018-02-24T11:35:35.320Z,14.17
2018-02-24T11:38:03.214Z,15.60
2018-02-24T11:40:30.846Z,14.57
2018-02-24T11:42:58.843Z,14.73
2018-02-24T11:45:26.622Z,15.40
2018-02-24T11:47:54.370Z,15.70
2018-02-24T11:50:22.121Z,16.77
2018-02-24T11:52:49.943Z,15.07
2018-02-24T11:55:17.869Z,15.30
2018-02-24T11:57:45.742Z,14.63
2018-02-24T12:00:13.544Z,14.80
2018-02-24T12:02:41.262Z,14.90
2018-02-24T12:05:08.828Z,13.23
2018-02-24T12:07:37.036Z,15.17
2018-02-24T12:10:04.933Z,13.43
2018-02-24T12:12:32.478Z,13.57
2018-02-24T12:15:00.022Z,16.10
2018-02-24T12:17:27.641Z,15.57
2018-02-24T12:19:55.508Z,13.37
2018-02-24T12:22:23.375Z,15.33
2018-02-24T12:24:51.018Z,14.30
2018-02-24T12:27:18.901Z,11.23
2018-02-24T12:29:46.769Z,13.93
2018-02-24T12:32:14.711Z,13.90
2018-02-24T12:34:42.508Z,12.80
2018-02-24T12:37:10.368Z,14.03
2018-02-24T12:39:38.039Z,11.70
2018-02-24T12:42:05.795Z,11.83
2018-02-24T12:44:33.694Z,12.23
2018-02-24T12:47:01.630Z,13.13
2018-02-24T12:49:29.495Z,12.27
2018-02-24T12:51:57.362Z,11.60
2018-02-24T12:54:26.149Z,12.02
2018-02-24T12:56:53.915Z,12.43
2018-02-24T12:59:21.574Z,9.55
2018-02-24T13:01:49.443Z,10.15
2018-02-24T13:04:17.087Z,9.32
2018-02-24T13:06:44.606Z,10.60
2018-02-24T13:09:12.355Z,10.73
2018-02-24T13:11:40.190Z,9.98
2018-02-24T13:14:07.761Z,10.23
2018-02-24T13:16:35.331Z,8.60
2018-02-24T13:19:02.972Z,10.02
2018-02-24T13:21:30.570Z,8.65
2018-02-24T13:23:58.395Z,9.40
2018-02-24T13:26:26.226Z,8.77
2018-02-24T13:28:53.818Z,8.63
2018-02-24T13:31:21.584Z,10.35
2018-02-24T13:33:49.353Z,7.55
2018-02-24T13:36:17.114Z,8.25
2018-02-24T13:38:44.786Z,7.68
2018-02-24T13:41:12.430Z,9.00
2018-02-24T13:43:40.043Z,7.28
2018-02-24T13:46:07.950Z,8.95
2018-02-24T13:48:36.548Z,9.70
2018-02-24T13:51:04.415Z,11.60
2018-02-24T13:53:32.172Z,8.90
2018-02-24T13:55:59.901Z,9.75
2018-02-24T13:58:27.770Z,8.05
2018-02-24T14:00:55.312Z,8.30
2018-02-24T14:03:23.325Z,7.37
2018-02-24T14:05:51.003Z,12.02
2018-02-24T14:08:18.866Z,7.15
2018-02-24T14:10:47.142Z,6.97
2018-02-24T14:13:15.013Z,8.23
2018-02-24T14:15:42.747Z,8.07
2018-02-24T14:18:10.844Z,7.72
2018-02-24T14:20:38.610Z,6.50
2018-02-24T14:23:07.154Z,7.18
2018-02-24T14:25:34.833Z,8.95
2018-02-24T14:28:02.689Z,6.78
2018-02-24T14:30:30.343Z,7.87
2018-02-24T14:32:57.883Z,7.72
2018-02-24T14:35:25.705Z,8.35
2018-02-24T14:37:53.304Z,8.43
2018-02-24T14:40:20.905Z,9.88
2018-02-24T14:42:48.587Z,9.00
2018-02-24T14:45:16.250Z,15.00
2018-02-24T14:47:44.049Z,12.25
2018-02-24T14:50:11.777Z,14.25
2018-02-24T14:52:39.643Z,11.77
2018-02-24T14:55:08.841Z,9.88
2018-02-24T14:57:36.708Z,11.73
2018-02-24T15:00:04.778Z,10.88
2018-02-24T15:02:32.543Z,8.07
2018-02-24T15:05:00.450Z,10.85
2018-02-24T15:07:28.406Z,12.00
2018-02-24T15:09:56.143Z,12.18
2018-02-24T15:12:24.416Z,9.48
2018-02-24T15:14:52.388Z,10.02
2018-02-24T15:17:20.251Z,10.63
2018-02-24T15:19:49.044Z,9.57
2018-02-24T15:22:17.734Z,8.65
2018-02-24T15:24:45.694Z,8.20
2018-02-24T15:27:13.423Z,11.32
2018-02-24T15:29:41.325Z,11.10
2018-02-24T15:32:09.092Z,8.15
2018-02-24T15:34:37.057Z,9.80
2018-02-24T15:37:05.231Z,9.50
2018-02-24T15:39:33.346Z,9.13
2018-02-24T15:42:00.939Z,6.25
2018-02-24T15:44:28.627Z,7.70
2018-02-24T15:46:56.213Z,9.25
2018-02-24T15:49:24.666Z,8.75
2018-02-24T15:51:52.567Z,9.38
2018-02-24T15:54:21.967Z,8.32
2018-02-24T15:56:49.915Z,12.50
2018-02-24T15:59:18.796Z,8.60
2018-02-24T16:01:46.768Z,8.65
2018-02-24T16:04:14.537Z,10.50
2018-02-24T16:06:42.280Z,8.20
2018-02-24T16:09:10.365Z,10.45
2018-02-24T16:11:38.227Z,9.27
2018-02-24T16:14:06.198Z,9.63
2018-02-24T16:16:33.954Z,8.95
2018-02-24T16:19:02.144Z,7.85
2018-02-24T16:21:30.513Z,8.90
2018-02-24T16:23:59.300Z,9.88
2018-02-24T16:26:27.635Z,7.78
2018-02-24T16:28:55.458Z,7.00
2018-02-24T16:31:23.307Z,8.40
2018-02-24T16:33:51.175Z,9.50
2018-02-24T16:36:18.909Z,7.10
2018-02-24T16:38:46.701Z,8.15
2018-02-24T16:41:14.569Z,8.00
2018-02-24T16:43:42.428Z,7.65
2018-02-24T16:46:10.101Z,7.87
2018-02-24T16:48:37.737Z,7.65
2018-02-24T16:51:05.627Z,8.80
2018-02-24T16:53:33.262Z,10.80
2018-02-24T16:56:00.953Z,8.95
2018-02-24T16:58:28.815Z,6.20
2018-02-24T17:00:56.476Z,8.77
2018-02-24T17:03:24.548Z,9.05
2018-02-24T17:05:52.212Z,8.23
2018-02-24T17:08:20.445Z,8.35
2018-02-24T17:10:48.331Z,7.43
2018-02-24T17:13:16.629Z,6.05
2018-02-24T17:15:44.542Z,7.85
2018-02-24T17:18:12.432Z,8.27
2018-02-24T17:20:40.229Z,7.78
2018-02-24T17:23:07.992Z,7.20
2018-02-24T17:25:36.129Z,6.53
2018-02-24T17:28:04.851Z,4.07
2018-02-24T17:30:32.717Z,5.93
2018-02-24T17:33:00.584Z,6.15
2018-02-24T17:35:29.473Z,6.20
2018-02-24T17:37:57.354Z,6.90
2018-02-24T17:40:25.481Z,5.10
2018-02-24T17:42:53.379Z,5.68
2018-02-24T17:45:21.143Z,5.80
2018-02-24T17:47:48.828Z,7.55
2018-02-24T17:50:16.619Z,7.07
2018-02-24T17:52:45.665Z,6.85
2018-02-24T17:55:13.412Z,8.05
2018-02-24T17:57:41.300Z,7.43
2018-02-24T18:00:09.166Z,6.60
2018-02-24T18:02:36.926Z,8.63
2018-02-24T18:05:04.587Z,11.25
2018-02-24T18:07:32.350Z,8.55
2018-02-24T18:09:59.909Z,7.55
2018-02-24T18:12:27.666Z,4.25
2018-02-24T18:14:55.439Z,6.90
2018-02-24T18:17:23.277Z,6.43
2018-02-24T18:19:50.968Z,7.07
2018-02-24T18:22:19.363Z,9.02
2018-02-24T18:24:47.177Z,7.75
2018-02-24T18:27:15.078Z,5.60
2018-02-24T18:29:43.046Z,6.22
2018-02-24T18:32:10.706Z,8.80
2018-02-24T18:34:38.623Z,8.32
2018-02-24T18:37:06.442Z,7.75
2018-02-24T18:39:34.517Z,6.30
2018-02-24T18:42:02.377Z,6.25
2018-02-24T18:44:29.964Z,6.47
2018-02-24T18:46:57.519Z,5.30
2018-02-24T18:49:25.185Z,5.95
2018-02-24T18:51:53.026Z,7.70
2018-02-24T18:54:20.755Z,6.45
2018-02-24T18:56:48.357Z,5.95
2018-02-24T18:59:16.017Z,8.80
2018-02-24T19:01:43.979Z,6.80
2018-02-24T19:04:11.812Z,7.78
2018-02-24T19:06:40.633Z,7.95
2018-02-24T19:09:08.471Z,7.75
2018-02-24T19:11:36.469Z,9.35
2018-02-24T19:14:04.438Z,8.00
2018-02-24T19:16:32.270Z,7.70
2018-02-24T19:19:00.173Z,7.82
2018-02-24T19:21:28.003Z,7.05
2018-02-24T19:23:56.312Z,8.50
2018-02-24T19:26:24.179Z,7.90
2018-02-24T19:28:51.840Z,9.63
2018-02-24T19:31:19.809Z,7.15
2018-02-24T19:33:47.581Z,11.15
2018-02-24T19:36:15.648Z,9.38
2018-02-24T19:38:43.444Z,8.27
2018-02-24T19:41:11.269Z,8.05
2018-02-24T19:43:39.300Z,6.95
2018-02-24T19:46:07.067Z,8.35
2018-02-24T19:48:34.978Z,7.47
2018-02-24T19:51:02.945Z,9.15
2018-02-24T19:53:31.017Z,8.95
2018-02-24T19:55:58.986Z,7.32
2018-02-24T19:58:26.996Z,7.65
2018-02-24T20:00:55.027Z,8.13
2018-02-24T20:03:22.790Z,6.90
2018-02-24T20:05:50.655Z,8.70
2018-02-24T20:08:18.517Z,6.28
2018-02-24T20:10:47.259Z,7.40
2018-02-24T20:13:15.074Z,8.43
2018-02-24T20:15:42.795Z,7.72
2018-02-24T20:18:10.616Z,6.22
2018-02-24T20:20:38.775Z,5.40
2018-02-24T20:23:06.746Z,6.45
2018-02-24T20:25:34.506Z,5.68
2018-02-24T20:28:02.699Z,5.62
2018-02-24T20:30:30.458Z,5.25
2018-02-24T20:32:58.416Z,6.45
2018-02-24T20:35:26.805Z,8.10
2018-02-24T20:37:54.660Z,5.95
2018-02-24T20:40:23.448Z,10.20
2018-02-24T20:42:52.132Z,5.62
2018-02-24T20:45:20.409Z,6.65
2018-02-24T20:47:48.891Z,6.82
2018-02-24T20:50:16.777Z,4.25
2018-02-24T20:52:44.623Z,6.03
2018-02-24T20:55:12.554Z,6.95
2018-02-24T20:57:40.518Z,6.70
2018-02-24T21:00:08.324Z,4.62
2018-02-24T21:02:36.504Z,5.45
2018-02-24T21:05:04.469Z,5.43
2018-02-24T21:07:32.388Z,5.00
2018-02-24T21:10:00.405Z,6.10
2018-02-24T21:12:28.274Z,5.80
2018-02-24T21:14:56.137Z,4.80
2018-02-24T21:17:24.005Z,6.40
2018-02-24T21:19:52.587Z,5.35
2018-02-24T21:22:20.363Z,4.87
2018-02-24T21:24:48.498Z,6.65
2018-02-24T21:27:16.389Z,6.05
2018-02-24T21:29:44.167Z,6.10
2018-02-24T21:32:12.329Z,5.90
2018-02-24T21:34:40.139Z,5.43
2018-02-24T21:37:08.369Z,6.97
2018-02-24T21:39:36.302Z,5.75
2018-02-24T21:42:04.103Z,6.37
2018-02-24T21:44:31.969Z,5.80
2018-02-24T21:46:59.796Z,5.93
2018-02-24T21:49:27.701Z,5.57
2018-02-24T21:51:55.671Z,6.10
2018-02-24T21:54:23.740Z,5.70
2018-02-24T21:56:51.711Z,4.97
2018-02-24T21:59:19.577Z,5.60
2018-02-24T22:01:47.442Z,7.10
2018-02-24T22:04:15.413Z,7.72
2018-02-24T22:06:44.560Z,5.55
2018-02-24T22:09:12.578Z,6.65
2018-02-24T22:11:40.444Z,6.37
2018-02-24T22:14:08.310Z,6.45
2018-02-24T22:16:36.689Z,7.43
2018-02-24T22:19:04.555Z,5.78
2018-02-24T22:21:32.742Z,6.45
2018-02-24T22:24:00.596Z,5.80
2018-02-24T22:26:28.857Z,4.95
2018-02-24T22:28:56.605Z,5.68
2018-02-24T22:31:25.541Z,5.78
2018-02-24T22:33:53.493Z,5.22
2018-02-24T22:36:21.498Z,7.30
2018-02-24T22:38:49.288Z,6.65
2018-02-24T22:41:17.158Z,5.90
2018-02-24T22:43:44.960Z,6.15
2018-02-24T22:46:13.029Z,7.15
2018-02-24T22:48:46.327Z,6.12
2018-02-24T22:51:14.278Z,6.72
2018-02-24T22:53:42.013Z,5.70
2018-02-24T22:56:09.822Z,4.60
2018-02-24T22:58:37.440Z,5.18
2018-02-24T23:01:05.247Z,7.10
2018-02-24T23:03:33.319Z,8.27
2018-02-24T23:06:00.982Z,5.10
2018-02-24T23:08:28.759Z,5.97
2018-02-24T23:10:56.613Z,4.97
2018-02-24T23:13:24.373Z,5.40
2018-02-24T23:15:52.286Z,6.15
